<?xml version='1.0' encoding='UTF-8'?><gpx version="1.1" creator="JPX - https://github.com/jenetics/jpx" xmlns="http://www.topografix.com/GPX/1/1"><trk><trkseg><trkpt lat="45.68164400362366" lon="11.313331714162151"><ele>688.0000000000001</ele><time>2026-04-06T08:13:46.998Z</time></trkpt><trkpt lat="45.68165311346288" lon="11.313428557290925"><ele>688.0</ele><time>2026-04-06T08:13:50Z</time></trkpt><trkpt lat="45.68169513187623" lon="11.313502847813291"><ele>688.0</ele><time>2026-04-06T08:13:53Z</time></trkpt><trkpt lat="45.68173087867068" lon="11.313577817434828"><ele>688.0</ele><time>2026-04-06T08:13:55Z</time></trkpt><trkpt lat="45.681781342306586" lon="11.313684730924157"><ele>688.0</ele><time>2026-04-06T08:13:58Z</time></trkpt><trkpt lat="45.68181863991634" lon="11.313785228290783"><ele>688.0000000000001</ele><time>2026-04-06T08:14:01Z</time></trkpt><trkpt lat="45.68181591519828" lon="11.313896482704966"><ele>688.0</ele><time>2026-04-06T08:14:03Z</time></trkpt><trkpt lat="45.681813333562886" lon="11.314000184255837"><ele>688.5</ele><time>2026-04-06T08:14:05Z</time></trkpt><trkpt lat="45.68178928266738" lon="11.314085416143085"><ele>689.0</ele><time>2026-04-06T08:14:07Z</time></trkpt><trkpt lat="45.68176838405495" lon="11.314180887585252"><ele>689.5</ele><time>2026-04-06T08:14:09Z</time></trkpt><trkpt lat="45.681734469218" lon="11.31428779419338"><ele>690.0</ele><time>2026-04-06T08:14:12Z</time></trkpt><trkpt lat="45.681704070735755" lon="11.314419358878483"><ele>690.5</ele><time>2026-04-06T08:14:15Z</time></trkpt><trkpt lat="45.68167344190694" lon="11.314502074490274"><ele>691.0</ele><time>2026-04-06T08:14:17Z</time></trkpt><trkpt lat="45.681617415645206" lon="11.314607144520737"><ele>691.0</ele><time>2026-04-06T08:14:20Z</time></trkpt><trkpt lat="45.68155812619505" lon="11.314703467089158"><ele>691.0</ele><time>2026-04-06T08:14:23Z</time></trkpt><trkpt lat="45.681526838216705" lon="11.314803167447568"><ele>691.0</ele><time>2026-04-06T08:14:26Z</time></trkpt><trkpt lat="45.681474756029544" lon="11.314914410577858"><ele>691.0</ele><time>2026-04-06T08:14:29Z</time></trkpt><trkpt lat="45.68145568962337" lon="11.315016167264776"><ele>691.0</ele><time>2026-04-06T08:14:32Z</time></trkpt><trkpt lat="45.681396661445106" lon="11.315071696997075"><ele>691.0</ele><time>2026-04-06T08:14:35Z</time></trkpt><trkpt lat="45.68133373402079" lon="11.315117970558322"><ele>691.0</ele><time>2026-04-06T08:14:44.999Z</time></trkpt><trkpt lat="45.68125218940659" lon="11.315171892012502"><ele>691.0</ele><time>2026-04-06T08:14:47.999Z</time></trkpt><trkpt lat="45.6811697318058" lon="11.31525162019641"><ele>691.0</ele><time>2026-04-06T08:14:50.999Z</time></trkpt><trkpt lat="45.68111002420544" lon="11.31532905874443"><ele>691.0</ele><time>2026-04-06T08:14:53.999Z</time></trkpt><trkpt lat="45.6810551541741" lon="11.315422611461555"><ele>691.0</ele><time>2026-04-06T08:14:56.999Z</time></trkpt><trkpt lat="45.680993875005036" lon="11.315500415343989"><ele>691.0</ele><time>2026-04-06T08:14:59.999Z</time></trkpt><trkpt lat="45.68094726627554" lon="11.315580006649816"><ele>691.0</ele><time>2026-04-06T08:15:02.999Z</time></trkpt><trkpt lat="45.68089221915565" lon="11.315630691815898"><ele>691.0</ele><time>2026-04-06T08:15:04.999Z</time></trkpt><trkpt lat="45.680810703249435" lon="11.315686407146398"><ele>691.0</ele><time>2026-04-06T08:15:06.999Z</time></trkpt><trkpt lat="45.68071822070376" lon="11.31575194423548"><ele>691.0</ele><time>2026-04-06T08:15:08.999Z</time></trkpt><trkpt lat="45.680616548105164" lon="11.315847109770166"><ele>691.0</ele><time>2026-04-06T08:15:10.999Z</time></trkpt><trkpt lat="45.68054555196844" lon="11.315923847759704"><ele>691.0</ele><time>2026-04-06T08:15:12.999Z</time></trkpt><trkpt lat="45.680459507877416" lon="11.316015963383185"><ele>691.0</ele><time>2026-04-06T08:15:14.999Z</time></trkpt><trkpt lat="45.68039273471661" lon="11.316076106991902"><ele>691.0</ele><time>2026-04-06T08:15:16.999Z</time></trkpt><trkpt lat="45.68028859115415" lon="11.31619212006779"><ele>691.0</ele><time>2026-04-06T08:15:18.999Z</time></trkpt><trkpt lat="45.68023268484983" lon="11.316237716250724"><ele>691.0</ele><time>2026-04-06T08:15:20.999Z</time></trkpt><trkpt lat="45.68017970634445" lon="11.316303973555113"><ele>690.5</ele><time>2026-04-06T08:15:23.999Z</time></trkpt><trkpt lat="45.680094773990604" lon="11.316324380699434"><ele>690.0</ele><time>2026-04-06T08:15:44.998Z</time></trkpt><trkpt lat="45.68003564141696" lon="11.31626621310053"><ele>689.5</ele><time>2026-04-06T08:15:49.998Z</time></trkpt><trkpt lat="45.679952752342025" lon="11.316192595739137"><ele>689.0</ele><time>2026-04-06T08:15:55Z</time></trkpt><trkpt lat="45.679878907213144" lon="11.316184104701287"><ele>688.5</ele><time>2026-04-06T08:15:58Z</time></trkpt><trkpt lat="45.67981291867738" lon="11.316180433028954"><ele>688.0</ele><time>2026-04-06T08:16:01Z</time></trkpt><trkpt lat="45.67972738462668" lon="11.316173739082817"><ele>688.0000000000001</ele><time>2026-04-06T08:16:05Z</time></trkpt><trkpt lat="45.67966486773173" lon="11.316198998886284"><ele>688.0</ele><time>2026-04-06T08:16:08Z</time></trkpt><trkpt lat="45.67960028932221" lon="11.31620293940095"><ele>688.0</ele><time>2026-04-06T08:16:11Z</time></trkpt><trkpt lat="45.67953652994724" lon="11.316215816609994"><ele>688.0</ele><time>2026-04-06T08:16:14Z</time></trkpt><trkpt lat="45.67946626162897" lon="11.316236275546006"><ele>688.0</ele><time>2026-04-06T08:16:17Z</time></trkpt><trkpt lat="45.67938181044376" lon="11.316241612625769"><ele>688.0000000000001</ele><time>2026-04-06T08:16:20Z</time></trkpt><trkpt lat="45.67931770173528" lon="11.316231203348549"><ele>688.0</ele><time>2026-04-06T08:16:23Z</time></trkpt><trkpt lat="45.67922680774123" lon="11.316245131991641"><ele>687.1666666666667</ele><time>2026-04-06T08:16:26Z</time></trkpt><trkpt lat="45.67912791157974" lon="11.316262337625862"><ele>686.3333333333334</ele><time>2026-04-06T08:16:29Z</time></trkpt><trkpt lat="45.67904463525409" lon="11.316291688535587"><ele>685.5</ele><time>2026-04-06T08:16:31Z</time></trkpt><trkpt lat="45.67896734325431" lon="11.316332264639364"><ele>684.6666666666666</ele><time>2026-04-06T08:16:33Z</time></trkpt><trkpt lat="45.67888717906216" lon="11.31638646314223"><ele>683.8333333333333</ele><time>2026-04-06T08:16:36Z</time></trkpt><trkpt lat="45.67883329607552" lon="11.316445002943471"><ele>683.0</ele><time>2026-04-06T08:16:38.999Z</time></trkpt><trkpt lat="45.67890541019421" lon="11.316540316458568"><ele>683.0</ele><time>2026-04-06T08:16:47.999Z</time></trkpt><trkpt lat="45.67894717286764" lon="11.316664164967996"><ele>683.0</ele><time>2026-04-06T08:16:50.999Z</time></trkpt><trkpt lat="45.67901219253634" lon="11.31674536442042"><ele>683.0</ele><time>2026-04-06T08:16:52.999Z</time></trkpt><trkpt lat="45.679056219994685" lon="11.316828907154699"><ele>683.0</ele><time>2026-04-06T08:16:54.999Z</time></trkpt><trkpt lat="45.67910922159134" lon="11.31694373949054"><ele>683.0</ele><time>2026-04-06T08:16:57.999Z</time></trkpt><trkpt lat="45.67915550864598" lon="11.317032651841345"><ele>683.0</ele><time>2026-04-06T08:17:01.999Z</time></trkpt><trkpt lat="45.679185820777185" lon="11.31712369296433"><ele>683.0</ele><time>2026-04-06T08:17:04.999Z</time></trkpt><trkpt lat="45.679203513009924" lon="11.317212269631556"><ele>683.0</ele><time>2026-04-06T08:17:07.999Z</time></trkpt><trkpt lat="45.67923050447099" lon="11.317307889881494"><ele>683.0</ele><time>2026-04-06T08:17:10.999Z</time></trkpt><trkpt lat="45.679278057406556" lon="11.317409084450793"><ele>683.0</ele><time>2026-04-06T08:17:13.999Z</time></trkpt><trkpt lat="45.67933787224606" lon="11.317490683871744"><ele>683.0</ele><time>2026-04-06T08:17:17.999Z</time></trkpt><trkpt lat="45.679382143839284" lon="11.317558837240368"><ele>683.0</ele><time>2026-04-06T08:17:20.999Z</time></trkpt><trkpt lat="45.67944942233336" lon="11.317623961069277"><ele>682.0</ele><time>2026-04-06T08:17:24.999Z</time></trkpt><trkpt lat="45.67947984367835" lon="11.317722878204956"><ele>681.0</ele><time>2026-04-06T08:17:27.999Z</time></trkpt><trkpt lat="45.67949313593324" lon="11.31784383436927"><ele>680.0</ele><time>2026-04-06T08:17:30.999Z</time></trkpt><trkpt lat="45.67950800194799" lon="11.317939865910052"><ele>679.0</ele><time>2026-04-06T08:17:33.999Z</time></trkpt><trkpt lat="45.67951164978783" lon="11.31803081964112"><ele>678.0</ele><time>2026-04-06T08:17:35.999Z</time></trkpt><trkpt lat="45.67951082205787" lon="11.31815962793834"><ele>677.0</ele><time>2026-04-06T08:17:37.999Z</time></trkpt><trkpt lat="45.679470392118205" lon="11.318272841471865"><ele>677.0</ele><time>2026-04-06T08:17:39.999Z</time></trkpt><trkpt lat="45.67944225812168" lon="11.318388597401727"><ele>677.0</ele><time>2026-04-06T08:17:40.999Z</time></trkpt><trkpt lat="45.679378729636525" lon="11.318496336248067"><ele>677.0</ele><time>2026-04-06T08:17:42.998Z</time></trkpt><trkpt lat="45.67931574330805" lon="11.318561128373418"><ele>677.0</ele><time>2026-04-06T08:17:44.998Z</time></trkpt><trkpt lat="45.67931000709718" lon="11.318665336284685"><ele>677.0</ele><time>2026-04-06T08:17:46.998Z</time></trkpt><trkpt lat="45.67931748213538" lon="11.31875927243706"><ele>677.0</ele><time>2026-04-06T08:17:49.998Z</time></trkpt><trkpt lat="45.67933540434747" lon="11.318872387606408"><ele>676.6666666666666</ele><time>2026-04-06T08:17:52.998Z</time></trkpt><trkpt lat="45.67937565527729" lon="11.318947005753218"><ele>676.3333333333333</ele><time>2026-04-06T08:17:54.998Z</time></trkpt><trkpt lat="45.67942665024771" lon="11.319064725792975"><ele>676.0</ele><time>2026-04-06T08:17:57.998Z</time></trkpt><trkpt lat="45.6794565787371" lon="11.319183858055379"><ele>675.6666666666666</ele><time>2026-04-06T08:17:59.998Z</time></trkpt><trkpt lat="45.679498573322185" lon="11.319282596082193"><ele>675.3333333333334</ele><time>2026-04-06T08:18:02Z</time></trkpt><trkpt lat="45.679531828574476" lon="11.319365136853705"><ele>675.0</ele><time>2026-04-06T08:18:03Z</time></trkpt><trkpt lat="45.67956885338224" lon="11.319490643702908"><ele>671.1666666666666</ele><time>2026-04-06T08:18:05Z</time></trkpt><trkpt lat="45.67965068705328" lon="11.319585971757974"><ele>667.3333333333334</ele><time>2026-04-06T08:18:07Z</time></trkpt><trkpt lat="45.67971293517957" lon="11.319620518415345"><ele>663.5</ele><time>2026-04-06T08:18:08Z</time></trkpt><trkpt lat="45.67977516848915" lon="11.319635627645903"><ele>659.6666666666667</ele><time>2026-04-06T08:18:09Z</time></trkpt><trkpt lat="45.67984473315319" lon="11.31966985447107"><ele>655.8333333333334</ele><time>2026-04-06T08:18:11Z</time></trkpt><trkpt lat="45.67990852492504" lon="11.319702605638112"><ele>652.0</ele><time>2026-04-06T08:18:13Z</time></trkpt><trkpt lat="45.67996853630389" lon="11.319790455815486"><ele>652.0</ele><time>2026-04-06T08:18:16Z</time></trkpt><trkpt lat="45.67998752885231" lon="11.319896399248195"><ele>652.0</ele><time>2026-04-06T08:18:18Z</time></trkpt><trkpt lat="45.68000332773586" lon="11.319992749413293"><ele>652.0</ele><time>2026-04-06T08:18:21Z</time></trkpt><trkpt lat="45.67997493994796" lon="11.320099948448508"><ele>652.0</ele><time>2026-04-06T08:18:26Z</time></trkpt><trkpt lat="45.67997303579583" lon="11.32021749330231"><ele>652.0</ele><time>2026-04-06T08:18:36Z</time></trkpt><trkpt lat="45.67998804948836" lon="11.32032586101109"><ele>652.0</ele><time>2026-04-06T08:18:39Z</time></trkpt><trkpt lat="45.679967330686154" lon="11.320428947048404"><ele>652.0</ele><time>2026-04-06T08:18:42Z</time></trkpt><trkpt lat="45.67993702683806" lon="11.320538136195648"><ele>652.0</ele><time>2026-04-06T08:18:44.999Z</time></trkpt><trkpt lat="45.67991777495763" lon="11.320624134589861"><ele>652.0</ele><time>2026-04-06T08:18:46.999Z</time></trkpt><trkpt lat="45.67990455983834" lon="11.320728220928308"><ele>652.0</ele><time>2026-04-06T08:18:49.999Z</time></trkpt><trkpt lat="45.67988839392998" lon="11.32082846879665"><ele>652.0</ele><time>2026-04-06T08:18:52.999Z</time></trkpt><trkpt lat="45.67985568794508" lon="11.320938214371568"><ele>652.0</ele><time>2026-04-06T08:18:55.999Z</time></trkpt><trkpt lat="45.67982368636557" lon="11.321027556107595"><ele>652.0</ele><time>2026-04-06T08:18:58.999Z</time></trkpt><trkpt lat="45.67978210180371" lon="11.321109008146077"><ele>652.0</ele><time>2026-04-06T08:19:02.999Z</time></trkpt><trkpt lat="45.67982703275101" lon="11.321041932600535"><ele>652.0</ele><time>2026-04-06T08:19:10.999Z</time></trkpt><trkpt lat="45.67985314605595" lon="11.320937561873603"><ele>652.0</ele><time>2026-04-06T08:19:14.999Z</time></trkpt><trkpt lat="45.67989530908669" lon="11.32086355272736"><ele>652.0</ele><time>2026-04-06T08:19:17.999Z</time></trkpt><trkpt lat="45.679907428328036" lon="11.320761484169635"><ele>652.0</ele><time>2026-04-06T08:19:20.999Z</time></trkpt><trkpt lat="45.67992180286053" lon="11.320655668025253"><ele>652.0</ele><time>2026-04-06T08:19:23.999Z</time></trkpt><trkpt lat="45.67995158366381" lon="11.320546453069603"><ele>652.0</ele><time>2026-04-06T08:19:26.999Z</time></trkpt><trkpt lat="45.679971733387944" lon="11.3204592793542"><ele>652.0</ele><time>2026-04-06T08:19:29.999Z</time></trkpt><trkpt lat="45.680003294799725" lon="11.320357195840431"><ele>652.0</ele><time>2026-04-06T08:19:32.999Z</time></trkpt><trkpt lat="45.67999748871817" lon="11.320244928917552"><ele>652.0</ele><time>2026-04-06T08:19:35.999Z</time></trkpt><trkpt lat="45.679959535847004" lon="11.320151494699251"><ele>652.0</ele><time>2026-04-06T08:19:38.999Z</time></trkpt><trkpt lat="45.67987830448221" lon="11.320220387799665"><ele>652.0</ele><time>2026-04-06T08:19:41.999Z</time></trkpt><trkpt lat="45.67980492250964" lon="11.320290678021948"><ele>652.0</ele><time>2026-04-06T08:19:44.999Z</time></trkpt><trkpt lat="45.679754177432244" lon="11.32035421919512"><ele>652.0</ele><time>2026-04-06T08:19:46.999Z</time></trkpt><trkpt lat="45.67970708254576" lon="11.32041840356101"><ele>652.0</ele><time>2026-04-06T08:19:48.999Z</time></trkpt><trkpt lat="45.67965491306017" lon="11.320476689217672"><ele>652.0</ele><time>2026-04-06T08:19:50.999Z</time></trkpt><trkpt lat="45.6796025838125" lon="11.320532443846684"><ele>652.0</ele><time>2026-04-06T08:19:52.999Z</time></trkpt><trkpt lat="45.679537063862426" lon="11.320588686172416"><ele>652.0</ele><time>2026-04-06T08:19:54.998Z</time></trkpt><trkpt lat="45.67948375876063" lon="11.320650543508393"><ele>652.0</ele><time>2026-04-06T08:19:56.998Z</time></trkpt><trkpt lat="45.67940443490426" lon="11.320733253012426"><ele>652.0</ele><time>2026-04-06T08:19:59.998Z</time></trkpt><trkpt lat="45.67933490717513" lon="11.320797548157365"><ele>654.5</ele><time>2026-04-06T08:20:01.998Z</time></trkpt><trkpt lat="45.679285328138356" lon="11.320889277411379"><ele>657.0</ele><time>2026-04-06T08:20:03.998Z</time></trkpt><trkpt lat="45.6792532540237" lon="11.320986289335634"><ele>659.5</ele><time>2026-04-06T08:20:05.998Z</time></trkpt><trkpt lat="45.67920413422999" lon="11.321099702353179"><ele>662.0</ele><time>2026-04-06T08:20:09Z</time></trkpt><trkpt lat="45.67915843489642" lon="11.321171837840065"><ele>664.5</ele><time>2026-04-06T08:20:11Z</time></trkpt><trkpt lat="45.67911795405846" lon="11.321258328001552"><ele>667.0</ele><time>2026-04-06T08:20:13Z</time></trkpt><trkpt lat="45.67907502712404" lon="11.321349341321989"><ele>664.8333333333334</ele><time>2026-04-06T08:20:15Z</time></trkpt><trkpt lat="45.67904922224641" lon="11.321436067854888"><ele>662.6666666666667</ele><time>2026-04-06T08:20:17Z</time></trkpt><trkpt lat="45.678999435478495" lon="11.321513237026835"><ele>660.5</ele><time>2026-04-06T08:20:19Z</time></trkpt><trkpt lat="45.678940008616046" lon="11.32161413044011"><ele>658.3333333333334</ele><time>2026-04-06T08:20:22Z</time></trkpt><trkpt lat="45.678887469533976" lon="11.321729826721452"><ele>656.1666666666666</ele><time>2026-04-06T08:20:25Z</time></trkpt><trkpt lat="45.67882932500394" lon="11.32183807408327"><ele>654.0</ele><time>2026-04-06T08:20:28Z</time></trkpt><trkpt lat="45.67879755760122" lon="11.32194068514152"><ele>654.0</ele><time>2026-04-06T08:20:30Z</time></trkpt><trkpt lat="45.678768971284704" lon="11.322036052400742"><ele>654.0</ele><time>2026-04-06T08:20:32Z</time></trkpt><trkpt lat="45.6787314031422" lon="11.322128483331323"><ele>654.0</ele><time>2026-04-06T08:20:34Z</time></trkpt><trkpt lat="45.678683339478546" lon="11.32220752246878"><ele>654.0</ele><time>2026-04-06T08:20:36Z</time></trkpt><trkpt lat="45.67862862149599" lon="11.322273925354434"><ele>654.0</ele><time>2026-04-06T08:20:38Z</time></trkpt><trkpt lat="45.678569523997226" lon="11.322315561931802"><ele>654.0</ele><time>2026-04-06T08:20:40Z</time></trkpt><trkpt lat="45.6784926466429" lon="11.322353613753334"><ele>654.0</ele><time>2026-04-06T08:20:42Z</time></trkpt><trkpt lat="45.67842158597152" lon="11.322430540359125"><ele>654.0</ele><time>2026-04-06T08:20:44Z</time></trkpt><trkpt lat="45.67835733955825" lon="11.322561790593353"><ele>654.0</ele><time>2026-04-06T08:20:46Z</time></trkpt><trkpt lat="45.678332828269106" lon="11.322722568076648"><ele>654.0</ele><time>2026-04-06T08:20:48Z</time></trkpt><trkpt lat="45.678314591625615" lon="11.322833301982445"><ele>654.0</ele><time>2026-04-06T08:20:49.999Z</time></trkpt><trkpt lat="45.67832302995332" lon="11.322950667703532"><ele>654.0</ele><time>2026-04-06T08:20:51.999Z</time></trkpt><trkpt lat="45.67834769930198" lon="11.323090675375965"><ele>654.0</ele><time>2026-04-06T08:20:53.999Z</time></trkpt><trkpt lat="45.678348838597266" lon="11.323188417636212"><ele>654.0</ele><time>2026-04-06T08:20:55.999Z</time></trkpt><trkpt lat="45.67827916112725" lon="11.323293996110985"><ele>654.0</ele><time>2026-04-06T08:20:58.999Z</time></trkpt><trkpt lat="45.6782068488762" lon="11.323379514014524"><ele>654.0</ele><time>2026-04-06T08:21:00.999Z</time></trkpt><trkpt lat="45.67816062816854" lon="11.323508511718217"><ele>654.0</ele><time>2026-04-06T08:21:02.999Z</time></trkpt><trkpt lat="45.67813267469631" lon="11.323674701938533"><ele>654.0</ele><time>2026-04-06T08:21:04.999Z</time></trkpt><trkpt lat="45.678157101767496" lon="11.323791500820503"><ele>654.0</ele><time>2026-04-06T08:21:05.999Z</time></trkpt><trkpt lat="45.67816776401239" lon="11.323907358193884"><ele>654.0</ele><time>2026-04-06T08:21:06.999Z</time></trkpt><trkpt lat="45.67818067271744" lon="11.324015064421024"><ele>654.0</ele><time>2026-04-06T08:21:07.999Z</time></trkpt><trkpt lat="45.678205318451276" lon="11.324137758152826"><ele>654.0</ele><time>2026-04-06T08:21:08.999Z</time></trkpt><trkpt lat="45.67821920731662" lon="11.324248829039412"><ele>654.0</ele><time>2026-04-06T08:21:09.999Z</time></trkpt><trkpt lat="45.67824132710397" lon="11.324411810169725"><ele>652.3333333333334</ele><time>2026-04-06T08:21:11.999Z</time></trkpt><trkpt lat="45.678252105302576" lon="11.32452831728659"><ele>650.6666666666666</ele><time>2026-04-06T08:21:13.999Z</time></trkpt><trkpt lat="45.67821214337326" lon="11.324653995048838"><ele>649.0</ele><time>2026-04-06T08:21:15.999Z</time></trkpt><trkpt lat="45.678184131558766" lon="11.32476576692612"><ele>647.3333333333333</ele><time>2026-04-06T08:21:16.999Z</time></trkpt><trkpt lat="45.67814736911955" lon="11.324861375241339"><ele>645.6666666666666</ele><time>2026-04-06T08:21:17.999Z</time></trkpt><trkpt lat="45.67812450956458" lon="11.324966010348124"><ele>644.0</ele><time>2026-04-06T08:21:18.999Z</time></trkpt><trkpt lat="45.67806212783552" lon="11.32510829758135"><ele>645.0</ele><time>2026-04-06T08:21:20.999Z</time></trkpt><trkpt lat="45.67800864821074" lon="11.325167088777333"><ele>646.0</ele><time>2026-04-06T08:21:21.999Z</time></trkpt><trkpt lat="45.67795134277103" lon="11.325218029404091"><ele>647.0</ele><time>2026-04-06T08:21:22.999Z</time></trkpt><trkpt lat="45.677870514029884" lon="11.325322930340782"><ele>648.0</ele><time>2026-04-06T08:21:24.999Z</time></trkpt><trkpt lat="45.677825517990584" lon="11.32544858163705"><ele>649.0</ele><time>2026-04-06T08:21:26.999Z</time></trkpt><trkpt lat="45.67778812222427" lon="11.325570003650926"><ele>650.0</ele><time>2026-04-06T08:21:28.999Z</time></trkpt><trkpt lat="45.67776231715069" lon="11.325682293691031"><ele>650.0</ele><time>2026-04-06T08:21:30.999Z</time></trkpt><trkpt lat="45.67769164072012" lon="11.325800574855224"><ele>650.0</ele><time>2026-04-06T08:21:32.999Z</time></trkpt><trkpt lat="45.67763427106865" lon="11.325910057190928"><ele>650.0</ele><time>2026-04-06T08:21:34.999Z</time></trkpt><trkpt lat="45.67756910010665" lon="11.325979982488601"><ele>650.0</ele><time>2026-04-06T08:21:36.999Z</time></trkpt><trkpt lat="45.6774892308521" lon="11.326123744627857"><ele>650.0</ele><time>2026-04-06T08:21:38.999Z</time></trkpt><trkpt lat="45.67740845802254" lon="11.32623916225514"><ele>650.0</ele><time>2026-04-06T08:21:40.999Z</time></trkpt><trkpt lat="45.67735749584877" lon="11.326371444913445"><ele>650.0</ele><time>2026-04-06T08:21:42.999Z</time></trkpt><trkpt lat="45.67730777062843" lon="11.326497137767394"><ele>650.0</ele><time>2026-04-06T08:21:44.999Z</time></trkpt><trkpt lat="45.67726697061522" lon="11.326617709612645"><ele>650.0</ele><time>2026-04-06T08:21:46.999Z</time></trkpt><trkpt lat="45.67724200924608" lon="11.326708144386187"><ele>650.0</ele><time>2026-04-06T08:21:48.999Z</time></trkpt><trkpt lat="45.67722995613404" lon="11.326858072781112"><ele>648.0</ele><time>2026-04-06T08:21:50.999Z</time></trkpt><trkpt lat="45.677173014627726" lon="11.326933476739406"><ele>646.0</ele><time>2026-04-06T08:21:54.999Z</time></trkpt><trkpt lat="45.67709642732102" lon="11.326987333244613"><ele>644.0</ele><time>2026-04-06T08:21:57.999Z</time></trkpt><trkpt lat="45.67702010152678" lon="11.327022985073976"><ele>642.0</ele><time>2026-04-06T08:21:59.999Z</time></trkpt><trkpt lat="45.67692041023594" lon="11.327012048812191"><ele>640.0</ele><time>2026-04-06T08:22:01.998Z</time></trkpt><trkpt lat="45.676809950789526" lon="11.32698299044566"><ele>639.4</ele><time>2026-04-06T08:22:03.998Z</time></trkpt><trkpt lat="45.67671327589897" lon="11.326978602614025"><ele>638.8</ele><time>2026-04-06T08:22:05.998Z</time></trkpt><trkpt lat="45.676620394276014" lon="11.326957106510374"><ele>638.2</ele><time>2026-04-06T08:22:07.998Z</time></trkpt><trkpt lat="45.676529412913" lon="11.326938744096632"><ele>637.6</ele><time>2026-04-06T08:22:09.998Z</time></trkpt><trkpt lat="45.67643948124944" lon="11.326929948993639"><ele>637.0</ele><time>2026-04-06T08:22:11.998Z</time></trkpt><trkpt lat="45.67634669748019" lon="11.326876418641717"><ele>637.0</ele><time>2026-04-06T08:22:14Z</time></trkpt><trkpt lat="45.67626262174604" lon="11.326843754162981"><ele>637.0</ele><time>2026-04-06T08:22:16Z</time></trkpt><trkpt lat="45.67618112834312" lon="11.32676987793537"><ele>637.0</ele><time>2026-04-06T08:22:18Z</time></trkpt><trkpt lat="45.67610953460832" lon="11.326745862248396"><ele>637.0</ele><time>2026-04-06T08:22:21Z</time></trkpt><trkpt lat="45.67605003211897" lon="11.326795785421368"><ele>637.0</ele><time>2026-04-06T08:22:25Z</time></trkpt><trkpt lat="45.67607591201809" lon="11.32690576877962"><ele>637.0</ele><time>2026-04-06T08:22:28Z</time></trkpt><trkpt lat="45.67611240237868" lon="11.327028363515966"><ele>637.0</ele><time>2026-04-06T08:22:31Z</time></trkpt><trkpt lat="45.6761581973853" lon="11.327124399417297"><ele>637.0</ele><time>2026-04-06T08:22:34Z</time></trkpt><trkpt lat="45.67618278096118" lon="11.327232740619849"><ele>637.0</ele><time>2026-04-06T08:22:36Z</time></trkpt><trkpt lat="45.67621302434286" lon="11.327330401333665"><ele>637.0</ele><time>2026-04-06T08:22:38Z</time></trkpt><trkpt lat="45.676226769714766" lon="11.3274397318168"><ele>637.0</ele><time>2026-04-06T08:22:40Z</time></trkpt><trkpt lat="45.67624133288779" lon="11.327555600945622"><ele>637.0</ele><time>2026-04-06T08:22:43Z</time></trkpt><trkpt lat="45.67626768996303" lon="11.327642293208594"><ele>635.6666666666667</ele><time>2026-04-06T08:22:45Z</time></trkpt><trkpt lat="45.67627857844267" lon="11.327751467271737"><ele>634.3333333333334</ele><time>2026-04-06T08:22:47Z</time></trkpt><trkpt lat="45.676282042271076" lon="11.32786016229454"><ele>633.0</ele><time>2026-04-06T08:22:49Z</time></trkpt><trkpt lat="45.67628168128851" lon="11.327974969719476"><ele>631.6666666666666</ele><time>2026-04-06T08:22:51Z</time></trkpt><trkpt lat="45.67629199479168" lon="11.328079935369528"><ele>630.3333333333333</ele><time>2026-04-06T08:22:53Z</time></trkpt><trkpt lat="45.67630890137185" lon="11.328193705307541"><ele>629.0</ele><time>2026-04-06T08:22:55Z</time></trkpt><trkpt lat="45.676323238005246" lon="11.328303207055253"><ele>627.0</ele><time>2026-04-06T08:22:57Z</time></trkpt><trkpt lat="45.67633635602273" lon="11.328417679782989"><ele>627.0</ele><time>2026-04-06T08:22:59Z</time></trkpt><trkpt lat="45.676324849461054" lon="11.328510981174798"><ele>627.0</ele><time>2026-04-06T08:23:01.999Z</time></trkpt></trkseg></trk></gpx>